• Join FlightAware (Why Join?)
  • Login
  • US Flag 
08:32PM EDT


 

Airport Tracker/Info


-or-


 

Live Flight TrackerFlight Track Log ✈ CFS657 ✈ 07-Oct-2013 ✈ KCLM - KSEA

Flight Track Log - Related Links

Times and Time Zones

All times are in EDT time to prevent confusion due to time zone crossing. See the CFS657 flight status page for this flight to view local times or setup timezone preferences in your user account.

Time Position Orientation Groundspeed Altitude Reporting Facility
EDT Latitude Longitude Course Direction KTS MPH feet Rate Location/Type
08:10PM 48.1331 -123.4117 152° Southeast 140 161 2,600  Level Seattle Center
08:11PM 48.1336 -123.3517 89° East 135 155 3,800 960 Climbing Seattle Center
08:12PM 48.1322 -123.2928 92° East 141 162 4,600 540 Climbing Seattle Center
08:14PM 48.1150 -123.2325 113° Southeast 164 189 5,000 120 Climbing Seattle Center
08:15PM 48.1014 -123.1606 106° East 184 212 4,900 -120 Descending Seattle Center
08:15PM 48.0975 -123.1492 117° Southeast 173 199 4,900  Level Seattle Center
08:16PM 47.9492 -123.1916 152° Southeast  Level Estimated
08:16PM 48.0842 -123.0794 106° East 173 199 4,900  Level Seattle Center
08:17PM 48.0753 -123.0225 103° East 170 196 5,000  Climbing Seattle Center
08:17PM 48.0761 -123.0122 83° East 168 193 4,900  Descending Seattle Center
08:18PM 48.0867 -122.9531 75° East 170 196 5,000  Climbing Seattle Center
08:18PM 48.0883 -122.9431 76° East 171 197 4,900  Descending Seattle Center
08:19PM 48.0833 -122.8883 98° East 167 192 5,000  Climbing Seattle Center
08:19PM 48.0808 -122.8819 120° Southeast 175 201 4,900  Descending Seattle Center
08:20PM 48.0456 -122.8533 152° Southeast 158 182 5,000 60 Climbing Seattle Center
08:20PM 48.0425 -122.8494 140° Southeast 158 182 5,000  Level Seattle Center
08:20PM 48.0431 -122.8500 326° Northwest 157 181 5,000  Level Seattle Center
08:20PM 48.0206 -122.8317 151° Southeast 160 184 5,000 60 Level Seattle Center
08:21PM 48.0039 -122.8150 146° Southeast 163 188 5,100 60 Climbing Seattle Center
08:21PM 47.9803 -122.7942 149° Southeast 157 181 5,100  Level Seattle Center
08:22PM 47.9669 -122.7831 151° Southeast 155 178 5,100  Level Seattle Center
08:23PM 47.9353 -122.7558 150° Southeast 158 182 5,100  Level Seattle Center
08:23PM 47.9289 -122.7506 151° Southeast 157 181 5,100  Level Seattle Center
08:23PM 47.9039 -122.7269 148° Southeast 158 182 5,100  Level Seattle Center
08:24PM 47.8917 -122.7158 149° Southeast 158 182 5,100  Level Seattle Center
08:24PM 47.8636 -122.6897 148° Southeast 156 180 5,100  Level Seattle Center
08:25PM 47.8550 -122.6833 154° Southeast 154 177 5,100  Level Seattle Center
08:25PM 47.8322 -122.6442 131° Southeast 176 203 5,100 -240 Level Seattle Center
08:26PM 47.8175 -122.5667 106° East 190 219 4,700 -420 Descending Seattle Center
08:27PM 47.8164 -122.5544 98° East 181 208 4,600 -540 Descending Seattle Center
08:27PM 47.8058 -122.4939 105° East 183 211 4,200 -600 Descending Seattle Center
08:28PM 47.8008 -122.4642 104° East 186 214 4,000 -120 Descending Seattle Center
08:29PM 47.7947 -122.4142 100° East 178 205 4,100  Climbing Seattle Center
08:29PM 47.7908 -122.3953 107° East 175 201 4,000  Descending Seattle Center
08:30PM 47.7731 -122.3636 130° Southeast 166 191 4,100  Climbing Seattle Center
08:30PM 47.7575 -122.3492 148° Southeast 173 199 4,000 -60 Descending Seattle Center
08:32PM 47.7254 -122.4522 245° Southwest  Level FlightAware Approximate
08:33PM 47.6417 -122.3178 146° Southeast 157 181 4,000  Level Seattle Center
08:33PM 47.6289 -122.3158 174° South 160 184 3,900 -1,020 Descending Seattle Center
08:34PM 47.5769 -122.3161 180° South 172 198 2,600 -1,080 Descending Seattle Center
08:35PM 47.5508 -122.3189 184° South 165 190 2,200 -840 Descending Seattle Center
08:35PM 47.5331 -122.3175 177° South 161 185 1,800 -840 Descending Seattle Center
08:36PM 47.5086 -122.3192 183° South 146 168 1,400 -720 Descending Seattle Center
08:36PM 47.4936 -122.3169 174° South 147 169 1,100 -780 Descending Seattle Center
08:36PM 47.4775 -122.3197 187° South 128 147 800 -600 Descending Seattle Center
08:37PM 47.4614 -122.3183 177° South 123 142 500 -300 Descending Seattle Center
08:38PM 47.4589 -122.3161 149° Southeast 42 48 400 -120 Descending Seattle Center
08:39PM 47.4473 -122.3140 146° Southeast  Level FlightAware Approximate